Time;durP1;ratioP1;P1;durP2;ratioP2;P2;SDS_P1;SDS_P2;PMS_P1;PMS_P2;Temp;Humidity;BMP_temperature;BMP_pressure;BME280_temperature;BME280_humidity;BME280_pressure;Samples;Min_cycle;Max_cycle;Signal;HPM_P1;HPM_P2
2022/04/03 00:02:23;;;;;;;2.45;1.52;;;3.30;99.90;;;;;;5018595;28;20038;-64
2022/04/03 00:04:48;;;;;;;3.50;2.08;;;3.30;99.90;;;;;;5021922;28;20042;-64
2022/04/03 00:07:14;;;;;;;3.78;1.70;;;3.30;99.90;;;;;;5027980;28;20509;-64
2022/04/03 00:09:39;;;;;;;4.40;1.90;;;3.30;99.90;;;;;;5021082;28;20053;-64
2022/04/03 00:12:05;;;;;;;5.35;1.75;;;3.30;99.90;;;;;;5025948;28;20056;-64
2022/04/03 00:14:31;;;;;;;3.95;1.90;;;3.30;99.90;;;;;;5025643;28;20045;-64
2022/04/03 00:16:57;;;;;;;6.63;2.08;;;3.50;99.90;;;;;;5012899;28;20053;-64
2022/04/03 00:19:22;;;;;;;4.55;1.98;;;3.50;99.90;;;;;;5025115;28;20053;-64
2022/04/03 00:21:49;;;;;;;3.75;2.53;;;3.60;99.90;;;;;;5013810;28;20042;-64
2022/04/03 00:24:14;;;;;;;6.00;2.33;;;3.50;99.90;;;;;;5008552;28;20045;-64
2022/04/03 00:26:40;;;;;;;4.40;2.50;;;3.70;99.90;;;;;;5020904;28;20174;-64
2022/04/03 00:29:05;;;;;;;5.60;2.42;;;3.70;99.90;;;;;;5015909;28;20123;-64
2022/04/03 00:31:31;;;;;;;4.88;1.98;;;3.70;99.90;;;;;;5024357;28;20768;-64
2022/04/03 00:33:57;;;;;;;2.53;1.90;;;3.80;99.90;;;;;;5027398;28;20053;-64
2022/04/03 00:36:22;;;;;;;8.55;1.98;;;3.80;99.90;;;;;;5013828;28;20053;-64
2022/04/03 00:38:49;;;;;;;4.45;2.08;;;3.80;99.90;;;;;;5016567;28;20134;-64
2022/04/03 00:41:16;;;;;;;7.43;2.58;;;3.90;99.90;;;;;;5026846;28;20487;-64
2022/04/03 00:43:43;;;;;;;4.10;2.05;;;3.90;99.90;;;;;;5012920;28;20045;-64
2022/04/03 00:46:12;;;;;;;7.25;2.35;;;3.80;99.90;;;;;;5016801;28;20081;-64
2022/04/03 00:48:40;;;;;;;4.55;1.83;;;3.80;99.90;;;;;;5027012;28;20484;-64
2022/04/03 00:51:05;;;;;;;5.53;1.50;;;3.90;99.90;;;;;;5028298;28;20041;-64
2022/04/03 00:53:31;;;;;;;6.63;2.28;;;3.90;99.90;;;;;;5007769;28;20073;-64
2022/04/03 00:55:56;;;;;;;3.85;1.92;;;3.90;99.90;;;;;;5011593;28;20043;-64
2022/04/03 00:58:22;;;;;;;3.13;1.52;;;3.90;99.90;;;;;;5013234;28;20045;-64
2022/04/03 01:00:48;;;;;;;3.70;2.13;;;3.90;99.90;;;;;;5014768;28;20042;-64
2022/04/03 01:03:14;;;;;;;2.15;1.58;;;3.90;99.90;;;;;;5016495;28;20073;-64
2022/04/03 01:05:40;;;;;;;2.75;1.40;;;3.90;99.90;;;;;;5019374;28;20096;-64
2022/04/03 01:08:06;;;;;;;3.13;1.45;;;3.90;99.90;;;;;;5029777;28;20041;-64
2022/04/03 01:10:32;;;;;;;6.25;1.95;;;4.00;99.90;;;;;;5030683;28;20037;-64
2022/04/03 01:12:57;;;;;;;3.33;1.80;;;4.00;99.90;;;;;;5022561;28;20092;-64
2022/04/03 01:15:23;;;;;;;4.47;2.10;;;4.00;99.90;;;;;;5026963;28;20038;-64
2022/04/03 01:17:48;;;;;;;5.22;2.08;;;3.90;99.90;;;;;;5020202;28;20501;-64
2022/04/03 01:20:15;;;;;;;4.85;2.22;;;4.00;99.90;;;;;;5023857;28;20305;-63
2022/04/03 01:22:40;;;;;;;3.78;2.22;;;4.10;99.90;;;;;;5030678;28;20049;-64
2022/04/03 01:25:09;;;;;;;3.30;2.03;;;4.10;99.90;;;;;;5012722;28;20037;-64
2022/04/03 01:27:35;;;;;;;5.43;2.63;;;4.10;99.90;;;;;;5022071;28;20045;-64
2022/04/03 01:30:01;;;;;;;3.13;1.67;;;4.00;99.90;;;;;;5031000;28;20511;-64
2022/04/03 01:32:26;;;;;;;8.30;2.22;;;4.00;99.90;;;;;;5029816;28;20120;-64
2022/04/03 01:34:52;;;;;;;4.40;2.05;;;4.10;99.90;;;;;;5026774;28;20069;-64
2022/04/03 01:37:17;;;;;;;6.05;2.10;;;4.00;99.90;;;;;;5023881;28;20041;-64
2022/04/03 01:39:43;;;;;;;8.48;2.67;;;3.90;99.90;;;;;;5019677;28;20053;-64
2022/04/03 01:42:09;;;;;;;5.38;1.88;;;4.00;99.90;;;;;;5025727;28;20037;-64
2022/04/03 01:44:35;;;;;;;6.28;1.98;;;4.10;99.90;;;;;;5029380;28;20049;-64
2022/04/03 01:47:00;;;;;;;4.38;1.70;;;3.90;99.90;;;;;;5030311;28;20045;-64
2022/04/03 01:49:26;;;;;;;5.68;2.25;;;3.90;99.90;;;;;;5010782;28;20512;-64
2022/04/03 01:51:51;;;;;;;4.07;2.42;;;4.10;99.90;;;;;;5024423;28;20041;-64
2022/04/03 01:54:16;;;;;;;3.33;2.08;;;4.10;99.90;;;;;;5027903;28;20068;-65
2022/04/03 01:56:44;;;;;;;6.35;2.83;;;4.20;99.90;;;;;;5029156;28;20056;-64
2022/04/03 01:59:09;;;;;;;5.78;1.85;;;4.10;99.90;;;;;;5010406;28;20060;-64
2022/04/03 02:01:35;;;;;;;5.38;2.25;;;4.00;99.90;;;;;;5026955;28;20049;-64
2022/04/03 02:04:02;;;;;;;4.78;2.58;;;4.00;99.90;;;;;;5023072;28;20489;-64
2022/04/03 02:06:28;;;;;;;4.72;2.28;;;3.90;99.90;;;;;;5013296;28;20042;-64
2022/04/03 02:08:54;;;;;;;5.13;3.05;;;4.00;99.90;;;;;;5014222;28;20433;-64
2022/04/03 02:11:20;;;;;;;7.47;2.30;;;3.90;99.90;;;;;;5027866;28;20076;-64
2022/04/03 02:13:45;;;;;;;3.45;2.10;;;3.90;99.90;;;;;;5029888;28;20060;-64
2022/04/03 02:16:11;;;;;;;5.05;2.47;;;3.80;99.90;;;;;;5022456;28;20052;-64
2022/04/03 02:18:37;;;;;;;3.78;1.98;;;3.90;99.90;;;;;;5013047;28;20042;-64
2022/04/03 02:21:02;;;;;;;2.80;1.92;;;3.90;99.90;;;;;;5016889;28;20495;-64
2022/04/03 02:23:28;;;;;;;3.15;1.63;;;3.80;99.90;;;;;;5019885;28;20053;-64
2022/04/03 02:25:54;;;;;;;3.38;1.70;;;3.70;99.90;;;;;;5022117;28;20049;-64
2022/04/03 02:28:20;;;;;;;3.67;1.65;;;3.70;99.90;;;;;;5026837;28;20054;-64
2022/04/03 02:30:47;;;;;;;3.28;1.73;;;3.60;99.90;;;;;;5018207;28;20041;-64
2022/04/03 02:33:13;;;;;;;5.78;2.47;;;3.60;99.90;;;;;;5016370;28;20073;-64
2022/04/03 02:35:38;;;;;;;4.03;2.20;;;3.50;99.90;;;;;;5013706;28;20096;-64
2022/04/03 02:38:04;;;;;;;2.35;1.67;;;3.40;99.90;;;;;;5025340;28;20041;-64
2022/04/03 02:40:30;;;;;;;3.28;2.10;;;3.30;99.90;;;;;;5031629;28;20072;-64
2022/04/03 02:42:55;;;;;;;2.65;1.50;;;3.30;99.90;;;;;;5016437;28;20045;-64
2022/04/03 02:45:21;;;;;;;8.98;1.88;;;3.20;99.90;;;;;;5011713;28;20050;-64
2022/04/03 02:47:52;;;;;;;7.30;2.20;;;3.20;99.90;;;;;;5029363;28;20478;-64
2022/04/03 02:50:20;;;;;;;7.18;1.98;;;3.20;99.90;;;;;;5024643;28;20452;-64
2022/04/03 02:52:47;;;;;;;5.75;1.50;;;3.10;99.90;;;;;;5011961;28;20092;-64
2022/04/03 02:55:12;;;;;;;3.92;1.88;;;3.00;99.90;;;;;;5016707;28;20497;-64
2022/04/03 02:57:38;;;;;;;2.78;1.70;;;3.00;99.90;;;;;;5023349;28;20099;-64
2022/04/03 03:00:06;;;;;;;3.78;2.20;;;3.00;99.90;;;;;;5013701;28;20045;-64
2022/04/03 03:02:31;;;;;;;3.13;2.10;;;3.00;99.90;;;;;;5028081;28;20111;-64
2022/04/03 03:04:57;;;;;;;3.25;2.35;;;2.90;99.90;;;;;;5029592;28;20045;-64
2022/04/03 03:07:23;;;;;;;2.95;1.60;;;2.80;99.90;;;;;;5020250;28;20040;-64
2022/04/03 03:09:49;;;;;;;2.30;1.60;;;2.80;99.90;;;;;;5022910;28;20045;-64
2022/04/03 03:12:15;;;;;;;4.97;2.00;;;2.80;99.90;;;;;;5028498;28;20049;-64
2022/04/03 03:14:41;;;;;;;4.30;1.70;;;2.70;99.90;;;;;;5027627;28;20121;-64
2022/04/03 03:17:06;;;;;;;5.13;1.50;;;2.70;99.90;;;;;;5016011;28;20437;-64
2022/04/03 03:19:32;;;;;;;2.45;1.70;;;2.70;99.90;;;;;;5028270;28;20388;-64
2022/04/03 03:21:58;;;;;;;4.00;1.63;;;2.70;99.90;;;;;;5016170;28;20100;-64
2022/04/03 03:24:23;;;;;;;4.00;1.52;;;2.70;99.90;;;;;;5016323;28;20033;-64
2022/04/03 03:26:49;;;;;;;2.13;1.52;;;2.80;99.90;;;;;;5019208;28;20441;-64
2022/04/03 03:29:15;;;;;;;3.42;1.52;;;2.80;99.90;;;;;;5017734;28;20038;-64
2022/04/03 03:31:40;;;;;;;6.10;1.67;;;2.80;99.90;;;;;;5027585;28;20048;-64
2022/04/03 03:34:06;;;;;;;2.05;1.35;;;2.80;99.90;;;;;;5028734;28;20052;-64
2022/04/03 03:36:32;;;;;;;5.13;2.35;;;2.70;99.90;;;;;;5023400;28;20048;-64
2022/04/03 03:38:57;;;;;;;2.47;1.42;;;2.70;99.90;;;;;;5024156;28;20045;-64
2022/04/03 03:41:23;;;;;;;2.75;1.60;;;2.60;99.90;;;;;;5027732;28;20046;-64
2022/04/03 03:43:48;;;;;;;2.03;1.20;;;2.60;99.90;;;;;;5014302;28;20478;-64
2022/04/03 03:46:14;;;;;;;2.80;1.75;;;2.50;99.90;;;;;;5023776;28;20053;-64
2022/04/03 03:48:40;;;;;;;2.17;1.17;;;2.50;99.90;;;;;;5028096;28;20045;-64
2022/04/03 03:51:06;;;;;;;4.07;1.77;;;2.50;99.90;;;;;;5020310;28;20042;-65
2022/04/03 03:53:32;;;;;;;5.68;2.15;;;2.40;99.90;;;;;;5011727;28;20061;-64
2022/04/03 03:55:57;;;;;;;6.20;1.40;;;2.40;99.90;;;;;;5021571;28;20505;-64
2022/04/03 03:58:23;;;;;;;2.38;1.60;;;2.40;99.90;;;;;;5019120;28;20060;-64
2022/04/03 04:00:49;;;;;;;7.93;1.52;;;2.40;99.90;;;;;;5014449;28;20041;-64
2022/04/03 04:03:15;;;;;;;1.60;1.40;;;2.30;99.90;;;;;;5020983;28;20087;-64
2022/04/03 04:05:41;;;;;;;4.97;2.75;;;2.20;99.90;;;;;;5020675;28;20045;-64
2022/04/03 04:08:10;;;;;;;2.40;1.67;;;2.10;99.90;;;;;;5023479;28;20404;-64
2022/04/03 04:10:35;;;;;;;5.05;1.60;;;2.10;99.90;;;;;;5026127;28;20045;-64
2022/04/03 04:13:03;;;;;;;2.20;1.52;;;2.10;99.90;;;;;;5028035;28;20113;-64
2022/04/03 04:15:30;;;;;;;2.47;1.60;;;2.10;99.90;;;;;;5021105;28;20049;-64
2022/04/03 04:17:55;;;;;;;5.93;1.50;;;2.10;99.90;;;;;;5019326;28;20407;-64
2022/04/03 04:20:21;;;;;;;1.95;1.33;;;2.10;99.90;;;;;;5023478;28;20136;-64
2022/04/03 04:22:48;;;;;;;4.78;1.95;;;2.10;99.90;;;;;;5012986;28;20145;-64
2022/04/03 04:25:16;;;;;;;6.68;1.90;;;2.00;99.90;;;;;;5021054;28;20049;-64
2022/04/03 04:27:42;;;;;;;2.83;1.75;;;2.00;99.90;;;;;;5013599;28;20041;-64
2022/04/03 04:30:08;;;;;;;5.10;2.03;;;2.00;99.90;;;;;;5028328;28;20416;-64
2022/04/03 04:32:34;;;;;;;2.75;1.83;;;2.00;99.90;;;;;;5018171;28;20046;-64
2022/04/03 04:34:59;;;;;;;3.35;1.40;;;2.00;99.90;;;;;;5015246;28;20050;-64
2022/04/03 04:37:25;;;;;;;2.85;1.50;;;1.90;99.90;;;;;;5011755;28;20038;-64
2022/04/03 04:39:52;;;;;;;3.58;1.30;;;1.90;99.90;;;;;;5017378;28;20077;-64
2022/04/03 04:42:18;;;;;;;2.60;1.73;;;1.90;99.90;;;;;;5015974;28;20104;-64
2022/04/03 04:44:44;;;;;;;4.00;1.95;;;1.90;99.90;;;;;;5030711;28;20076;-64
2022/04/03 04:47:10;;;;;;;3.75;1.23;;;1.90;99.90;;;;;;5031023;28;20448;-64
2022/04/03 04:49:36;;;;;;;7.10;1.55;;;1.90;99.90;;;;;;5015935;28;20398;-64
2022/04/03 04:52:02;;;;;;;3.53;2.08;;;2.00;99.90;;;;;;5013150;28;20056;-64
2022/04/03 04:54:27;;;;;;;4.63;1.55;;;1.90;99.90;;;;;;5011214;28;20049;-64
2022/04/03 04:56:53;;;;;;;6.93;2.53;;;1.90;99.90;;;;;;5025443;28;20072;-64
2022/04/03 04:59:19;;;;;;;3.35;1.30;;;2.00;99.90;;;;;;5021198;28;20053;-64
2022/04/03 05:01:45;;;;;;;7.13;1.35;;;2.00;99.90;;;;;;5016014;28;20409;-64
2022/04/03 05:04:10;;;;;;;2.85;1.42;;;2.10;99.90;;;;;;5029161;28;20045;-64
2022/04/03 05:06:36;;;;;;;3.72;1.60;;;2.20;99.90;;;;;;5018713;28;20037;-64
2022/04/03 05:09:04;;;;;;;2.53;1.52;;;2.10;99.90;;;;;;5026359;28;20439;-64
2022/04/03 05:11:30;;;;;;;5.03;1.42;;;2.20;99.90;;;;;;5031007;28;20038;-64
2022/04/03 05:13:57;;;;;;;7.57;1.40;;;2.30;99.90;;;;;;5031324;28;20377;-64
2022/04/03 05:16:22;;;;;;;2.92;1.25;;;2.40;99.90;;;;;;5017804;28;20231;-64
2022/04/03 05:18:48;;;;;;;3.95;1.40;;;2.40;99.90;;;;;;5023784;28;20132;-65
2022/04/03 05:21:14;;;;;;;4.13;1.38;;;2.50;99.90;;;;;;5017556;28;20069;-64
2022/04/03 05:23:41;;;;;;;2.88;1.10;;;2.50;99.90;;;;;;5017378;28;20104;-64
2022/04/03 05:26:06;;;;;;;6.22;1.27;;;2.60;99.90;;;;;;5010994;28;20541;-64
2022/04/03 05:28:32;;;;;;;6.20;1.25;;;2.60;99.90;;;;;;5017476;28;20041;-65
2022/04/03 05:30:58;;;;;;;5.10;1.48;;;2.50;99.90;;;;;;5018146;28;20489;-64
2022/04/03 05:33:23;;;;;;;7.63;2.22;;;2.60;99.90;;;;;;5030666;28;20073;-65
2022/04/03 05:35:50;;;;;;;7.63;1.17;;;2.60;99.90;;;;;;5027236;28;20092;-64
2022/04/03 05:38:16;;;;;;;3.83;1.02;;;2.60;99.90;;;;;;5012691;28;20074;-64
2022/04/03 05:40:42;;;;;;;5.05;1.33;;;2.60;99.90;;;;;;5022544;28;20083;-64
2022/04/03 05:43:10;;;;;;;3.65;0.98;;;2.50;99.90;;;;;;5030736;28;20033;-64
2022/04/03 05:45:37;;;;;;;4.10;1.50;;;2.60;99.90;;;;;;5011386;28;20113;-64
2022/04/03 05:48:07;;;;;;;6.65;1.40;;;2.60;99.90;;;;;;5019387;28;20053;-64
2022/04/03 05:50:33;;;;;;;2.85;1.00;;;2.60;99.90;;;;;;5019063;28;20041;-64
2022/04/03 05:52:59;;;;;;;3.65;1.30;;;2.70;99.90;;;;;;5013489;28;20049;-64
2022/04/03 05:55:24;;;;;;;2.35;0.80;;;2.60;99.90;;;;;;5025388;28;20052;-64
2022/04/03 05:57:52;;;;;;;2.10;0.93;;;2.80;99.90;;;;;;5029755;28;20414;-64
2022/04/03 06:00:20;;;;;;;4.22;1.13;;;2.80;99.90;;;;;;5029450;28;20077;-64
2022/04/03 06:02:46;;;;;;;3.88;1.20;;;2.80;99.90;;;;;;5025227;28;20053;-64
2022/04/03 06:05:12;;;;;;;2.22;0.95;;;2.80;99.90;;;;;;5012290;28;20054;-62
2022/04/03 06:07:37;;;;;;;4.18;1.92;;;2.90;99.90;;;;;;5030033;28;20216;-62
2022/04/03 06:10:03;;;;;;;3.42;1.35;;;2.90;99.90;;;;;;5025327;28;20496;-62
2022/04/03 06:12:29;;;;;;;2.00;0.93;;;3.00;99.90;;;;;;5012213;28;20049;-62
2022/04/03 06:14:55;;;;;;;1.38;0.75;;;3.00;99.90;;;;;;5029549;28;20385;-62
2022/04/03 06:17:20;;;;;;;5.15;0.88;;;3.10;99.90;;;;;;5018533;28;20072;-62
2022/04/03 06:19:46;;;;;;;5.13;1.08;;;3.20;99.90;;;;;;5010243;28;20049;-62
2022/04/03 06:22:11;;;;;;;2.25;0.90;;;3.30;99.90;;;;;;5024278;28;20499;-62
2022/04/03 06:24:36;;;;;;;3.65;1.00;;;3.40;99.90;;;;;;5027340;28;20049;-61
2022/04/03 06:27:02;;;;;;;2.40;0.85;;;3.50;99.90;;;;;;5023716;28;20099;-61
2022/04/03 06:29:28;;;;;;;5.05;1.27;;;3.60;99.90;;;;;;5009805;28;20046;-61
2022/04/03 06:31:53;;;;;;;2.70;1.40;;;3.70;99.90;;;;;;5012625;28;20474;-61
2022/04/03 06:34:19;;;;;;;16.30;1.27;;;3.70;99.90;;;;;;5028983;28;20050;-61
2022/04/03 06:36:45;;;;;;;4.93;1.17;;;3.80;99.90;;;;;;5017381;28;20477;-61
2022/04/03 06:39:10;;;;;;;3.15;1.25;;;3.90;99.90;;;;;;5023747;28;20132;-61
2022/04/03 06:41:37;;;;;;;5.32;1.25;;;4.10;99.90;;;;;;5028672;28;20500;-61
2022/04/03 06:44:03;;;;;;;2.72;0.93;;;4.20;99.90;;;;;;5019764;28;20053;-61
2022/04/03 06:46:28;;;;;;;5.35;1.10;;;4.40;99.90;;;;;;5009918;28;20042;-61
2022/04/03 06:48:55;;;;;;;3.60;1.00;;;4.50;99.90;;;;;;5009579;28;20537;-61
2022/04/03 06:51:21;;;;;;;2.78;0.80;;;4.60;99.90;;;;;;5019328;28;20042;-62
2022/04/03 06:53:46;;;;;;;2.75;0.85;;;4.70;99.90;;;;;;5009432;28;20053;-62
2022/04/03 06:56:12;;;;;;;6.43;1.00;;;4.70;99.90;;;;;;5015146;28;20532;-61
2022/04/03 06:58:37;;;;;;;2.88;1.50;;;4.80;99.90;;;;;;5017941;28;20049;-62
2022/04/03 07:01:03;;;;;;;1.42;0.90;;;4.90;99.90;;;;;;5020616;28;20041;-61
2022/04/03 07:03:31;;;;;;;3.35;0.90;;;5.10;99.90;;;;;;5029146;28;20052;-62
2022/04/03 07:05:57;;;;;;;3.55;1.05;;;5.20;99.90;;;;;;5029309;28;20137;-62
2022/04/03 07:08:23;;;;;;;2.20;0.73;;;5.10;99.90;;;;;;5022525;28;20112;-62
2022/04/03 07:10:49;;;;;;;4.72;1.00;;;5.20;99.90;;;;;;5018251;28;20049;-61
2022/04/03 07:13:15;;;;;;;1.83;0.47;;;5.30;99.90;;;;;;5028719;28;20515;-62
2022/04/03 07:15:40;;;;;;;4.10;1.10;;;5.30;99.90;;;;;;5017449;28;20038;-62
2022/04/03 07:18:07;;;;;;;4.78;1.27;;;5.30;99.90;;;;;;5014159;28;20046;-61
2022/04/03 07:20:33;;;;;;;2.17;1.10;;;5.40;99.90;;;;;;5008946;28;20379;-62
2022/04/03 07:22:58;;;;;;;3.28;0.82;;;5.30;99.90;;;;;;5008991;28;20497;-61
2022/04/03 07:25:24;;;;;;;7.43;1.17;;;5.40;99.90;;;;;;5016304;28;20044;-62
2022/04/03 07:27:50;;;;;;;2.45;0.77;;;5.20;99.90;;;;;;5022892;28;20049;-63
2022/04/03 07:30:15;;;;;;;1.35;0.45;;;5.20;99.90;;;;;;5028147;28;20052;-64
2022/04/03 07:32:41;;;;;;;5.13;1.10;;;5.20;99.90;;;;;;5024799;28;20088;-64
2022/04/03 07:35:08;;;;;;;3.97;0.85;;;5.20;99.90;;;;;;5009482;28;20084;-64
2022/04/03 07:37:34;;;;;;;1.38;0.63;;;5.30;99.90;;;;;;5015884;28;20041;-64
2022/04/03 07:40:01;;;;;;;1.50;0.77;;;5.30;99.90;;;;;;5018965;28;20475;-65
2022/04/03 07:42:26;;;;;;;5.57;0.95;;;5.40;99.90;;;;;;5025331;28;20053;-64
2022/04/03 07:44:52;;;;;;;3.03;0.82;;;5.50;99.90;;;;;;5016376;28;20124;-64
2022/04/03 07:47:17;;;;;;;1.42;0.60;;;5.60;99.90;;;;;;5028767;28;20492;-64
2022/04/03 07:49:43;;;;;;;1.40;0.40;;;5.70;99.90;;;;;;5025117;28;20060;-64
2022/04/03 07:52:09;;;;;;;2.75;0.60;;;5.80;99.90;;;;;;5008173;28;20061;-64
2022/04/03 07:54:35;;;;;;;1.40;0.40;;;5.90;99.90;;;;;;5011402;28;20485;-64
2022/04/03 07:57:00;;;;;;;4.50;1.13;;;6.10;99.90;;;;;;5015068;28;20116;-64
2022/04/03 07:59:26;;;;;;;1.05;0.43;;;6.20;99.90;;;;;;5008236;28;20576;-64
2022/04/03 08:01:52;;;;;;;1.35;0.45;;;6.20;99.90;;;;;;5022251;28;20049;-64
2022/04/03 08:04:17;;;;;;;1.73;0.60;;;6.20;99.90;;;;;;5025407;28;20046;-64
2022/04/03 08:06:43;;;;;;;1.58;0.68;;;6.30;99.90;;;;;;5008814;28;20532;-64
2022/04/03 08:09:09;;;;;;;1.67;0.65;;;6.30;99.90;;;;;;5018742;28;20497;-64
2022/04/03 08:11:35;;;;;;;4.00;0.47;;;6.40;99.90;;;;;;5010110;28;20037;-64
2022/04/03 08:14:00;;;;;;;5.28;0.70;;;6.50;99.90;;;;;;5013399;28;20037;-64
2022/04/03 08:16:26;;;;;;;5.13;0.82;;;6.70;99.90;;;;;;5011535;28;20112;-64
2022/04/03 08:18:52;;;;;;;12.40;1.10;;;7.00;99.90;;;;;;5008146;28;20084;-64
2022/04/03 08:21:18;;;;;;;4.47;0.93;;;7.20;99.90;;;;;;5008565;28;20046;-64
2022/04/03 08:23:45;;;;;;;2.22;1.13;;;7.70;99.90;;;;;;5008148;28;20046;-64
2022/04/03 08:26:12;;;;;;;4.43;1.13;;;8.20;99.90;;;;;;5010302;28;20084;-64
2022/04/03 08:28:37;;;;;;;6.38;1.10;;;8.40;99.90;;;;;;5026089;28;20095;-64
2022/04/03 08:31:03;;;;;;;2.75;1.40;;;9.20;99.90;;;;;;5028197;28;20037;-64
2022/04/03 08:33:28;;;;;;;1.35;0.70;;;9.60;99.90;;;;;;5010390;28;20048;-64
2022/04/03 08:35:54;;;;;;;6.57;1.17;;;9.70;99.90;;;;;;5012425;28;20072;-64
2022/04/03 08:38:19;;;;;;;2.72;0.77;;;9.80;99.90;;;;;;5017291;28;20093;-65
2022/04/03 08:40:45;;;;;;;1.35;0.63;;;10.30;99.90;;;;;;5020297;28;20052;-64
2022/04/03 08:43:11;;;;;;;1.58;1.05;;;10.40;99.90;;;;;;5028724;28;20382;-64
2022/04/03 08:45:37;;;;;;;1.95;0.60;;;11.10;99.90;;;;;;5025484;28;20038;-64
2022/04/03 08:48:02;;;;;;;1.88;0.40;;;11.50;99.90;;;;;;5023515;28;20048;-64
2022/04/03 08:50:35;;;;;;;3.83;1.13;;;11.80;99.90;;;;;;5026461;28;20120;-65
2022/04/03 08:53:03;;;;;;;1.35;0.50;;;11.90;99.90;;;;;;5020323;28;20471;-64
2022/04/03 08:55:29;;;;;;;1.58;0.52;;;12.00;99.90;;;;;;5007375;28;20121;-64
2022/04/03 08:57:56;;;;;;;1.95;0.85;;;12.20;99.90;;;;;;5021666;28;20045;-62
2022/04/03 09:00:22;;;;;;;3.45;0.50;;;12.40;99.90;;;;;;5026429;28;20047;-62
2022/04/03 09:02:47;;;;;;;1.58;0.50;;;12.60;99.90;;;;;;5028360;28;20136;-62
2022/04/03 09:05:14;;;;;;;4.13;0.47;;;12.70;99.90;;;;;;5028118;28;20114;-62
2022/04/03 09:07:40;;;;;;;8.57;0.93;;;12.60;99.90;;;;;;5011577;28;20767;-62
2022/04/03 09:10:14;;;;;;;2.20;0.70;;;12.30;99.90;;;;;;5008157;28;20089;-62
2022/04/03 09:12:47;;;;;;;;;;;11.70;99.90;;;;;;5022766;28;20050;-62
2022/04/03 09:15:14;;;;;;;3.97;0.88;;;11.20;99.90;;;;;;5009777;28;19921;-62
2022/04/03 09:17:45;;;;;;;2.30;0.70;;;10.50;99.90;;;;;;5008345;28;20046;-62
2022/04/03 09:20:19;;;;;;;7.93;1.00;;;9.90;99.90;;;;;;5011989;28;20034;-62
2022/04/03 09:22:48;;;;;;;2.42;0.98;;;9.40;99.90;;;;;;5007632;28;20042;-62
2022/04/03 09:25:19;;;;;;;6.32;2.10;;;9.30;99.90;;;;;;5008273;28;20038;-63
2022/04/03 09:27:50;;;;;;;10.00;1.00;;;8.80;99.90;;;;;;5010945;28;20045;-64
2022/04/03 09:30:16;;;;;;;3.97;0.85;;;9.60;99.90;;;;;;5020181;28;20427;-64
2022/04/03 09:33:01;;;;;;;1.85;0.75;;;10.50;99.90;;;;;;5031392;28;20076;-64
2022/04/03 09:35:32;;;;;;;1.73;0.75;;;10.40;99.90;;;;;;5022265;28;20408;-64
2022/04/03 09:38:09;;;;;;;1.52;0.80;;;9.80;99.90;;;;;;5011693;28;20061;-64
2022/04/03 09:40:37;;;;;;;3.90;1.00;;;9.50;99.90;;;;;;5013969;28;20385;-64
2022/04/03 09:43:26;;;;;;;2.50;0.70;;;9.70;99.90;;;;;;5010986;28;20125;-64
2022/04/03 09:45:54;;;;;;;4.50;0.70;;;10.40;99.90;;;;;;5014489;28;20046;-64
2022/04/03 09:48:28;;;;;;;2.15;0.60;;;11.20;99.90;;;;;;5022449;28;20125;-64
2022/04/03 09:51:00;;;;;;;1.58;0.60;;;11.90;99.90;;;;;;5020540;28;20049;-64
2022/04/03 09:53:38;;;;;;;1.55;0.70;;;12.30;99.90;;;;;;5023117;28;20140;-64
2022/04/03 09:56:03;;;;;;;2.88;0.77;;;12.40;99.90;;;;;;5029911;28;20377;-64
2022/04/03 09:58:29;;;;;;;2.15;0.60;;;11.90;99.90;;;;;;5027382;28;20129;-64
2022/04/03 10:00:54;;;;;;;2.45;0.50;;;11.80;99.90;;;;;;5027629;28;20124;-64
2022/04/03 10:03:23;;;;;;;3.08;0.77;;;11.20;99.90;;;;;;5010554;28;20470;-64
2022/04/03 10:05:49;;;;;;;2.30;0.85;;;11.30;99.90;;;;;;5013778;28;20052;-64
2022/04/03 10:08:17;;;;;;;6.05;1.13;;;11.50;99.90;;;;;;5011332;28;20042;-64
2022/04/03 10:10:42;;;;;;;1.08;0.65;;;10.90;99.90;;;;;;5009421;28;20056;-64
2022/04/03 10:13:10;;;;;;;2.33;0.60;;;10.40;99.90;;;;;;5015169;28;20049;-64
2022/04/03 10:15:36;;;;;;;5.88;0.80;;;10.20;99.90;;;;;;5027920;28;20046;-64
2022/04/03 10:18:02;;;;;;;3.22;0.50;;;10.60;99.90;;;;;;5010962;28;20756;-64
2022/04/03 10:20:28;;;;;;;3.15;0.93;;;10.90;99.90;;;;;;5018711;28;20117;-64
2022/04/03 10:23:07;;;;;;;2.03;0.50;;;11.20;99.90;;;;;;5024941;28;20038;-64
2022/04/03 10:25:38;;;;;;;5.85;0.82;;;11.60;99.90;;;;;;5023244;28;20050;-64
2022/04/03 10:28:05;;;;;;;1.83;0.68;;;11.40;99.90;;;;;;5028389;28;20416;-63
2022/04/03 10:30:36;;;;;;;5.80;1.27;;;11.00;99.90;;;;;;5023167;28;20485;-64
2022/04/03 10:33:02;;;;;;;2.95;0.52;;;10.70;99.90;;;;;;5014377;28;20050;-64
2022/04/03 10:35:27;;;;;;;3.55;0.95;;;10.70;99.90;;;;;;5026263;28;20056;-64
2022/04/03 10:38:04;;;;;;;4.35;0.75;;;10.80;99.90;;;;;;5028882;28;20033;-64
2022/04/03 10:40:34;;;;;;;1.77;0.40;;;11.10;99.90;;;;;;5021824;28;20111;-64
2022/04/03 10:43:03;;;;;;;0.32;0.32;;;11.40;99.90;;;;;;5012458;28;20068;-64
2022/04/03 10:45:34;;;;;;;3.17;0.82;;;11.00;99.90;;;;;;5009986;28;20049;-64
2022/04/03 10:48:21;;;;;;;4.97;1.02;;;10.50;99.90;;;;;;5019335;28;20049;-64
2022/04/03 10:51:08;;;;;;;2.67;0.73;;;10.00;99.90;;;;;;5027527;28;20037;-64
2022/04/03 10:53:35;;;;;;;2.30;0.85;;;9.70;99.90;;;;;;5016684;28;20046;-64
2022/04/03 10:56:08;;;;;;;10.35;0.82;;;9.60;99.90;;;;;;5028979;28;20054;-64
2022/04/03 10:58:46;;;;;;;4.05;0.77;;;9.80;99.90;;;;;;5023105;28;20047;-63
2022/04/03 11:01:25;;;;;;;3.97;0.70;;;10.60;99.90;;;;;;5022154;28;20038;-64
2022/04/03 11:03:56;;;;;;;3.15;0.63;;;11.10;99.90;;;;;;5025274;28;20041;-64
2022/04/03 11:06:24;;;;;;;4.97;0.80;;;11.40;99.90;;;;;;5018535;28;20045;-64
2022/04/03 11:08:58;;;;;;;1.52;0.70;;;11.80;99.90;;;;;;5012690;28;20436;-64
2022/04/03 11:11:50;;;;;;;4.80;0.80;;;12.00;99.90;;;;;;5021557;28;20118;-64
2022/04/03 11:14:50;;;;;;;2.83;0.57;;;11.40;99.90;;;;;;5025897;28;20053;-64
2022/04/03 11:17:15;;;;;;;3.88;0.88;;;11.30;99.90;;;;;;5029266;28;20049;-64
2022/04/03 11:19:44;;;;;;;1.23;0.70;;;11.90;99.90;;;;;;5013296;28;20045;-64
2022/04/03 11:22:16;;;;;;;4.00;1.05;;;11.50;99.90;;;;;;5020442;28;20052;-64
2022/04/03 11:24:42;;;;;;;4.15;1.42;;;12.00;99.90;;;;;;5028790;28;20040;-63
2022/04/03 11:27:08;;;;;;;4.07;0.95;;;11.90;99.90;;;;;;5023726;28;20038;-64
2022/04/03 11:29:35;;;;;;;0.98;0.57;;;12.40;99.90;;;;;;5012927;28;20284;-64
2022/04/03 11:32:06;;;;;;;2.83;0.80;;;12.60;98.50;;;;;;5012972;28;20042;-64
2022/04/03 11:34:32;;;;;;;3.85;0.77;;;13.00;99.50;;;;;;5009312;28;20044;-64
2022/04/03 11:37:03;;;;;;;1.23;0.40;;;12.60;99.40;;;;;;5009107;28;20041;-64
2022/04/03 11:39:36;;;;;;;4.05;0.45;;;12.60;97.40;;;;;;5009904;28;20408;-64
2022/04/03 11:42:04;;;;;;;;;;;11.70;97.10;;;;;;5010106;28;20548;-64
2022/04/03 11:44:29;;;;;;;6.88;0.70;;;11.40;98.00;;;;;;5007732;28;20700;-64
2022/04/03 11:46:55;;;;;;;2.15;0.60;;;11.70;99.90;;;;;;5008284;28;20061;-64
2022/04/03 11:49:25;;;;;;;3.60;1.00;;;11.90;99.90;;;;;;5008585;28;20374;-64
2022/04/03 11:51:56;;;;;;;2.85;0.77;;;12.40;99.90;;;;;;5007742;28;20065;-64
2022/04/03 11:54:25;;;;;;;2.97;0.73;;;12.20;98.90;;;;;;5009237;28;20435;-64
2022/04/03 11:56:51;;;;;;;4.30;1.25;;;12.20;99.00;;;;;;5018591;28;20048;-64
2022/04/03 11:59:21;;;;;;;1.40;0.60;;;12.90;99.10;;;;;;5010784;28;20049;-64
2022/04/03 12:01:50;;;;;;;3.58;1.00;;;12.50;98.10;;;;;;5019764;28;20152;-64
2022/04/03 12:04:16;;;;;;;3.72;0.50;;;12.50;99.10;;;;;;5008471;28;20052;-64
2022/04/03 12:06:47;;;;;;;1.98;0.60;;;11.80;98.40;;;;;;5028181;28;20033;-64
2022/04/03 12:09:15;;;;;;;2.75;0.82;;;11.80;99.20;;;;;;5022271;28;20049;-64
2022/04/03 12:11:45;;;;;;;1.85;0.60;;;12.60;99.70;;;;;;5027703;28;20049;-64
2022/04/03 12:14:10;;;;;;;2.78;0.80;;;12.90;98.90;;;;;;5027087;28;20061;-64
2022/04/03 12:16:40;;;;;;;2.90;0.60;;;12.70;99.20;;;;;;5028389;28;20080;-64
2022/04/03 12:19:09;;;;;;;3.63;0.90;;;12.40;99.30;;;;;;5018809;28;20037;-64
2022/04/03 12:21:39;;;;;;;2.63;0.90;;;13.00;99.90;;;;;;5016630;28;20493;-64
2022/04/03 12:24:15;;;;;;;1.08;0.30;;;13.40;98.70;;;;;;5028178;28;20064;-64
2022/04/03 12:26:45;;;;;;;1.52;0.63;;;13.00;97.40;;;;;;5015120;28;20049;-64
2022/04/03 12:29:11;;;;;;;3.70;0.93;;;12.80;97.10;;;;;;5009015;28;20128;-64
2022/04/03 12:31:37;;;;;;;2.22;0.63;;;13.30;98.10;;;;;;5006864;28;20049;-64
2022/04/03 12:34:15;;;;;;;0.80;0.40;;;12.90;96.50;;;;;;5026595;28;20443;-64
2022/04/03 12:36:48;;;;;;;2.05;0.50;;;12.10;96.80;;;;;;5028166;28;20049;-64
2022/04/03 12:39:52;;;;;;;4.13;0.82;;;11.60;96.80;;;;;;5007403;28;20042;-65
2022/04/03 12:42:26;;;;;;;4.07;0.70;;;12.20;98.10;;;;;;5017646;28;20425;-65
2022/04/03 12:45:08;;;;;;;2.15;0.60;;;12.30;96.90;;;;;;5009628;28;20038;-65
2022/04/03 12:47:38;;;;;;;1.60;0.68;;;11.80;97.60;;;;;;5007399;28;20060;-65
2022/04/03 12:50:06;;;;;;;2.70;0.38;;;11.50;97.70;;;;;;5007943;28;20038;-65
2022/04/03 12:52:54;;;;;;;3.38;0.80;;;11.20;99.10;;;;;;5017498;28;20053;-65
2022/04/03 12:55:26;;;;;;;2.75;0.88;;;10.80;99.50;;;;;;5024631;28;20527;-65
2022/04/03 13:01:14;;;;;;;5.20;0.80;;;11.00;99.90;;;;;;5026874;28;20057;-65